createdAt,value
2018-09-28T00:01:29.572Z,68.73
2018-09-28T00:04:01.479Z,68.72
2018-09-28T00:06:33.456Z,68.75
2018-09-28T00:09:08.387Z,68.58
2018-09-28T00:11:40.382Z,69.38
2018-09-28T00:14:12.382Z,69.49
2018-09-28T00:16:44.397Z,69.12
2018-09-28T00:19:16.413Z,69.35
2018-09-28T00:21:48.481Z,69.93
2018-09-28T00:24:20.457Z,70.10
2018-09-28T00:26:52.485Z,69.95
2018-09-28T00:29:24.526Z,68.73
2018-09-28T00:31:56.489Z,69.85
2018-09-28T00:34:28.569Z,70.26
2018-09-28T00:37:00.472Z,69.98
2018-09-28T00:39:32.414Z,70.02
2018-09-28T00:42:04.466Z,70.95
2018-09-28T00:44:36.592Z,70.96
2018-09-28T00:47:08.618Z,71.61
2018-09-28T00:49:40.469Z,70.33
2018-09-28T00:52:12.486Z,70.88
2018-09-28T00:54:44.416Z,71.02
2018-09-28T00:57:16.450Z,71.44
2018-09-28T00:59:48.407Z,71.76
2018-09-28T01:02:20.470Z,71.31
2018-09-28T01:04:52.508Z,72.28
2018-09-28T01:07:24.460Z,71.71
2018-09-28T01:09:56.505Z,72.24
2018-09-28T01:12:28.497Z,72.12
2018-09-28T01:15:00.452Z,72.10
2018-09-28T01:17:32.449Z,73.00
2018-09-28T01:20:04.487Z,73.44
2018-09-28T01:22:36.548Z,73.89
2018-09-28T01:25:08.497Z,73.69
2018-09-28T01:27:40.440Z,74.36
2018-09-28T01:30:12.474Z,74.34
2018-09-28T01:32:44.490Z,74.00
2018-09-28T01:35:16.464Z,74.34
2018-09-28T01:37:48.448Z,74.15
2018-09-28T01:40:20.500Z,73.81
2018-09-28T01:42:52.554Z,73.99
2018-09-28T01:45:24.492Z,74.03
2018-09-28T01:47:56.444Z,74.77
2018-09-28T01:50:28.441Z,75.12
2018-09-28T01:53:00.425Z,74.87
2018-09-28T01:55:32.445Z,74.59
2018-09-28T01:58:04.432Z,74.75
2018-09-28T02:00:36.445Z,74.35
2018-09-28T02:03:08.666Z,75.94
2018-09-28T02:05:40.534Z,75.59
2018-09-28T02:08:12.463Z,75.96
2018-09-28T02:10:44.477Z,75.87
2018-09-28T02:13:16.452Z,75.67
2018-09-28T02:15:48.565Z,75.55
2018-09-28T02:18:20.518Z,75.46
2018-09-28T02:20:52.525Z,75.45
2018-09-28T02:23:24.514Z,75.95
2018-09-28T02:25:56.500Z,75.73
2018-09-28T02:28:28.489Z,75.77
2018-09-28T02:31:00.457Z,76.21
2018-09-28T02:33:32.517Z,75.90
2018-09-28T02:36:04.505Z,74.73
2018-09-28T02:38:36.511Z,75.76
2018-09-28T02:41:08.509Z,76.54
2018-09-28T02:43:40.506Z,75.50
2018-09-28T02:46:12.453Z,75.80
2018-09-28T02:48:44.465Z,76.50
2018-09-28T02:51:16.495Z,76.22
2018-09-28T02:53:48.478Z,76.34
2018-09-28T02:56:20.506Z,76.48
2018-09-28T02:58:52.521Z,76.98
2018-09-28T03:01:24.529Z,77.34
2018-09-28T03:03:56.501Z,77.31
2018-09-28T03:06:28.547Z,76.97
2018-09-28T03:09:00.510Z,76.07
2018-09-28T03:11:32.506Z,76.16
2018-09-28T03:14:04.502Z,76.78
2018-09-28T03:16:36.526Z,76.75
2018-09-28T03:19:08.513Z,76.38
2018-09-28T03:21:40.444Z,76.49
2018-09-28T03:24:12.461Z,76.60
2018-09-28T03:26:44.587Z,76.46
2018-09-28T03:29:16.473Z,77.10
2018-09-28T03:31:48.447Z,76.30
2018-09-28T03:34:20.615Z,77.05
2018-09-28T03:36:52.521Z,76.35
2018-09-28T03:39:24.494Z,77.93
2018-09-28T03:41:56.472Z,78.45
2018-09-28T03:44:28.552Z,79.17
2018-09-28T03:47:01.511Z,78.13
2018-09-28T03:49:33.493Z,78.56
2018-09-28T03:52:05.682Z,77.77
2018-09-28T03:54:37.553Z,77.69
2018-09-28T03:57:10.573Z,78.58
2018-09-28T03:59:42.724Z,78.18
2018-09-28T04:02:14.574Z,78.24
2018-09-28T04:04:46.513Z,78.74
2018-09-28T04:07:18.522Z,79.34
2018-09-28T04:09:50.481Z,79.43
2018-09-28T04:12:22.449Z,79.17
2018-09-28T04:14:54.522Z,79.07
2018-09-28T04:17:26.539Z,79.17
2018-09-28T04:19:58.556Z,79.22
2018-09-28T04:22:30.481Z,79.26
2018-09-28T04:25:02.429Z,78.67
2018-09-28T04:27:34.465Z,80.12
2018-09-28T04:30:06.581Z,80.04
2018-09-28T04:32:38.498Z,80.80
2018-09-28T04:35:10.481Z,80.56
2018-09-28T04:37:42.458Z,80.05
2018-09-28T04:40:14.478Z,79.62
2018-09-28T04:42:46.495Z,79.89
2018-09-28T04:45:18.603Z,79.61
2018-09-28T04:47:50.476Z,78.64
2018-09-28T04:50:23.458Z,78.62
2018-09-28T04:52:55.732Z,79.12
2018-09-28T04:55:27.728Z,78.31
2018-09-28T04:57:59.690Z,78.68
2018-09-28T05:00:38.568Z,78.80
2018-09-28T05:03:11.615Z,78.70
2018-09-28T05:05:43.589Z,78.49
2018-09-28T05:08:15.593Z,78.27
2018-09-28T05:10:47.513Z,79.06
2018-09-28T05:13:19.395Z,78.38
2018-09-28T05:15:51.415Z,78.77
2018-09-28T05:18:24.007Z,78.26
2018-09-28T05:20:55.918Z,78.53
2018-09-28T05:23:27.596Z,79.12
2018-09-28T05:25:59.495Z,79.33
2018-09-28T05:28:31.456Z,80.35
2018-09-28T05:31:03.473Z,80.37
2018-09-28T05:33:35.497Z,79.65
2018-09-28T05:36:07.474Z,79.10
2018-09-28T05:38:39.562Z,79.63
2018-09-28T05:41:11.478Z,79.37
2018-09-28T05:43:43.556Z,80.12
2018-09-28T05:46:15.498Z,80.98
2018-09-28T05:48:47.479Z,80.70
2018-09-28T05:51:19.560Z,79.75
2018-09-28T05:53:51.543Z,77.80
2018-09-28T05:56:23.688Z,78.11
2018-09-28T05:59:00.740Z,78.59
2018-09-28T06:01:37.894Z,78.54
2018-09-28T06:04:15.195Z,78.36
2018-09-28T06:06:47.424Z,77.90
2018-09-28T06:09:19.473Z,77.75
2018-09-28T06:11:51.425Z,78.06
2018-09-28T06:14:23.440Z,78.10
2018-09-28T06:16:55.506Z,77.58
2018-09-28T06:19:27.488Z,78.00
2018-09-28T06:21:59.563Z,77.90
2018-09-28T06:24:31.464Z,78.51
2018-09-28T06:27:03.417Z,78.01
2018-09-28T06:29:35.468Z,78.48
2018-09-28T06:32:07.428Z,78.66
2018-09-28T06:34:39.453Z,78.61
2018-09-28T06:37:11.565Z,78.44
2018-09-28T06:39:43.466Z,78.18
2018-09-28T06:42:15.468Z,77.84
2018-09-28T06:44:47.507Z,77.89
2018-09-28T06:47:19.470Z,77.54
2018-09-28T06:49:51.498Z,76.99
2018-09-28T06:52:23.463Z,76.24
2018-09-28T06:54:55.420Z,75.89
2018-09-28T06:57:27.476Z,75.20
2018-09-28T06:59:59.730Z,75.68
2018-09-28T07:02:31.690Z,75.57
2018-09-28T07:05:03.731Z,75.51
2018-09-28T07:07:35.730Z,74.36
2018-09-28T07:10:08.294Z,73.51
2018-09-28T07:12:40.418Z,72.95
2018-09-28T07:15:12.581Z,73.39
2018-09-28T07:17:44.575Z,72.54
2018-09-28T07:20:16.605Z,71.72
2018-09-28T07:22:48.539Z,72.45
2018-09-28T07:25:20.594Z,71.80
2018-09-28T07:27:52.605Z,72.24
2018-09-28T07:30:25.064Z,71.06
2018-09-28T07:32:57.370Z,71.27
2018-09-28T07:35:29.414Z,70.61
2018-09-28T07:38:01.498Z,69.94
2018-09-28T07:40:33.510Z,69.57
2018-09-28T07:43:05.511Z,70.23
2018-09-28T07:45:37.598Z,70.14
2018-09-28T07:48:11.294Z,68.47
2018-09-28T07:50:43.762Z,69.07
2018-09-28T07:53:15.569Z,68.13
2018-09-28T07:55:47.534Z,68.00
2018-09-28T07:58:19.565Z,66.83
2018-09-28T08:00:51.702Z,66.31
2018-09-28T08:03:28.382Z,66.79
2018-09-28T08:06:01.241Z,63.68
2018-09-28T08:08:33.323Z,63.11
2018-09-28T08:11:05.395Z,62.31
2018-09-28T08:13:37.455Z,60.24
2018-09-28T08:16:09.609Z,59.92
2018-09-28T08:18:41.667Z,58.71
2018-09-28T08:21:13.594Z,59.51
2018-09-28T08:23:45.529Z,58.53
2018-09-28T08:26:17.493Z,57.57
2018-09-28T08:28:49.533Z,56.38
2018-09-28T08:31:21.485Z,54.68
2018-09-28T08:33:53.479Z,54.26
2018-09-28T08:36:25.631Z,53.95
2018-09-28T08:38:57.542Z,51.46
2018-09-28T08:41:29.478Z,53.28
2018-09-28T08:44:01.501Z,53.08
2018-09-28T08:46:33.482Z,50.06
2018-09-28T08:49:05.786Z,50.47
2018-09-28T08:51:37.701Z,51.41
2018-09-28T08:54:09.527Z,50.65
2018-09-28T08:56:41.506Z,51.31
2018-09-28T08:59:13.489Z,50.62
2018-09-28T09:01:45.501Z,51.18
2018-09-28T09:04:17.538Z,50.89
2018-09-28T09:06:49.513Z,52.82
2018-09-28T09:09:21.505Z,51.16
2018-09-28T09:11:53.440Z,50.66
2018-09-28T09:14:25.602Z,52.00
2018-09-28T09:16:57.477Z,53.28
2018-09-28T09:19:29.497Z,52.04
2018-09-28T09:22:01.527Z,51.10
2018-09-28T09:24:33.503Z,51.86
2018-09-28T09:27:05.607Z,50.73
2018-09-28T09:29:37.528Z,51.94
2018-09-28T09:32:09.460Z,50.42
2018-09-28T09:34:41.422Z,51.79
2018-09-28T09:37:13.498Z,51.36
2018-09-28T09:39:45.508Z,51.63
2018-09-28T09:42:18.464Z,48.95
2018-09-28T09:44:50.479Z,47.81
2018-09-28T09:47:22.480Z,47.48
2018-09-28T09:49:54.472Z,46.87
2018-09-28T09:52:26.476Z,46.55
2018-09-28T09:54:58.504Z,45.75
2018-09-28T09:57:30.390Z,46.59
2018-09-28T10:00:02.370Z,47.99
2018-09-28T10:02:39.356Z,46.45
2018-09-28T10:05:12.387Z,47.31
2018-09-28T10:07:44.443Z,47.08
2018-09-28T10:10:16.472Z,46.67
2018-09-28T10:12:49.337Z,45.07
2018-09-28T10:15:20.613Z,45.09
2018-09-28T10:17:52.547Z,44.05
2018-09-28T10:20:24.484Z,43.08
2018-09-28T10:22:56.545Z,43.25
2018-09-28T10:25:28.554Z,43.29
2018-09-28T10:28:00.603Z,43.84
2018-09-28T10:30:32.538Z,43.43
2018-09-28T10:33:04.658Z,44.23
2018-09-28T10:35:36.637Z,43.18
2018-09-28T10:38:08.643Z,43.45
2018-09-28T10:40:43.517Z,43.99
2018-09-28T10:43:14.388Z,43.36
2018-09-28T10:45:46.477Z,43.21
2018-09-28T10:48:18.533Z,43.56
2018-09-28T10:50:50.629Z,42.94
2018-09-28T10:53:23.242Z,42.01
2018-09-28T10:55:55.365Z,41.94
2018-09-28T10:58:27.467Z,41.53
2018-09-28T11:00:59.393Z,40.87
2018-09-28T11:03:31.418Z,41.37
2018-09-28T11:06:03.394Z,42.15
2018-09-28T11:08:35.476Z,43.64
2018-09-28T11:11:07.365Z,42.19
2018-09-28T11:13:39.361Z,42.14
2018-09-28T11:16:11.397Z,43.66
2018-09-28T11:18:43.357Z,43.92
2018-09-28T11:21:15.420Z,45.22
2018-09-28T11:23:47.377Z,45.17
2018-09-28T11:26:19.504Z,45.55
2018-09-28T11:28:51.489Z,46.50
2018-09-28T11:31:23.460Z,46.12
2018-09-28T11:33:55.493Z,45.61
2018-09-28T11:36:27.542Z,46.51
2018-09-28T11:38:59.461Z,46.86
2018-09-28T11:41:31.509Z,47.58
2018-09-28T11:44:03.504Z,46.51
2018-09-28T11:46:35.447Z,46.98
2018-09-28T11:49:07.617Z,48.65
2018-09-28T11:51:39.575Z,48.75
2018-09-28T11:54:11.505Z,49.50
2018-09-28T11:56:43.500Z,50.78
2018-09-28T11:59:15.588Z,50.71
2018-09-28T12:01:47.517Z,51.01
2018-09-28T12:04:19.432Z,51.38
2018-09-28T12:06:51.678Z,50.82
2018-09-28T12:09:23.582Z,51.43
2018-09-28T12:11:55.597Z,53.09
2018-09-28T12:14:27.468Z,53.07
2018-09-28T12:16:59.464Z,53.15
2018-09-28T12:19:31.449Z,54.11
2018-09-28T12:22:03.534Z,54.41
2018-09-28T12:24:36.621Z,54.39
2018-09-28T12:27:08.683Z,55.18
2018-09-28T12:29:40.556Z,55.33
2018-09-28T12:32:12.514Z,54.87
2018-09-28T12:34:44.532Z,54.74
2018-09-28T12:37:16.495Z,55.69
2018-09-28T12:39:48.655Z,55.07
2018-09-28T12:42:20.514Z,55.61
2018-09-28T12:44:52.648Z,56.04
2018-09-28T12:47:24.518Z,56.68
2018-09-28T12:49:56.529Z,57.05
2018-09-28T12:52:28.522Z,57.25
2018-09-28T12:55:00.507Z,57.17
2018-09-28T12:57:32.499Z,58.22
2018-09-28T13:00:04.565Z,57.22
2018-09-28T13:02:36.640Z,57.99
2018-09-28T13:05:08.481Z,57.71
2018-09-28T13:07:40.494Z,58.55
2018-09-28T13:10:12.506Z,58.20
2018-09-28T13:12:44.504Z,60.03
2018-09-28T13:15:16.631Z,59.91
2018-09-28T13:17:48.452Z,60.35
2018-09-28T13:20:21.255Z,61.02
2018-09-28T13:22:53.354Z,61.08
2018-09-28T13:25:25.366Z,62.00
2018-09-28T13:27:58.397Z,62.38
2018-09-28T13:30:30.505Z,63.28
2018-09-28T13:33:02.512Z,63.21
2018-09-28T13:35:34.498Z,64.43
2018-09-28T13:38:06.577Z,64.90
2018-09-28T13:40:38.483Z,65.04
2018-09-28T13:43:10.499Z,65.68
2018-09-28T13:45:42.494Z,65.77
2018-09-28T13:48:14.520Z,65.40
2018-09-28T13:50:46.568Z,66.24
2018-09-28T13:53:18.465Z,65.90
2018-09-28T13:55:50.506Z,65.94
2018-09-28T13:58:22.513Z,65.49
2018-09-28T14:00:54.454Z,66.18
2018-09-28T14:03:26.723Z,66.26
2018-09-28T14:08:43.414Z,66.64
2018-09-28T14:11:15.395Z,66.16
2018-09-28T14:13:47.381Z,66.90
2018-09-28T14:16:19.408Z,66.82
2018-09-28T14:21:12.523Z,66.31
2018-09-28T14:23:44.722Z,66.15
2018-09-28T14:26:16.567Z,66.20
2018-09-28T14:28:48.724Z,66.10
2018-09-28T14:31:20.453Z,65.96
2018-09-28T14:33:52.482Z,65.87
2018-09-28T14:36:24.653Z,66.02
2018-09-28T14:38:57.262Z,66.11
2018-09-28T14:41:29.285Z,65.73
2018-09-28T14:44:00.376Z,66.34
2018-09-28T14:46:32.269Z,65.23
2018-09-28T14:49:04.381Z,65.36
2018-09-28T14:51:36.348Z,65.36
2018-09-28T14:54:08.438Z,65.06
2018-09-28T14:56:40.376Z,64.71
2018-09-28T14:59:12.390Z,65.48
2018-09-28T15:01:44.364Z,64.68
2018-09-28T15:04:16.511Z,65.19
2018-09-28T15:06:48.611Z,65.20
2018-09-28T15:09:20.486Z,65.36
2018-09-28T15:11:52.444Z,65.63
2018-09-28T15:14:24.513Z,65.25
2018-09-28T15:16:56.464Z,66.24
2018-09-28T15:19:28.456Z,65.99
2018-09-28T15:24:41.491Z,65.29
2018-09-28T15:27:13.515Z,65.03
2018-09-28T15:29:45.530Z,65.76
2018-09-28T15:32:17.449Z,65.96
2018-09-28T15:34:49.477Z,65.62
2018-09-28T15:37:21.457Z,66.04
2018-09-28T15:39:53.467Z,65.96
2018-09-28T15:42:25.465Z,65.74
2018-09-28T15:44:57.448Z,65.87
2018-09-28T15:47:29.509Z,65.29
2018-09-28T15:50:01.489Z,65.77
2018-09-28T15:52:33.479Z,64.98
2018-09-28T15:55:05.505Z,64.92
2018-09-28T15:57:37.558Z,64.74
2018-09-28T16:00:10.498Z,63.60
2018-09-28T16:02:42.421Z,63.94
2018-09-28T16:05:14.465Z,63.47
2018-09-28T16:07:46.442Z,62.86
2018-09-28T16:10:18.478Z,62.82
2018-09-28T16:12:50.443Z,61.89
2018-09-28T16:15:22.477Z,61.95
2018-09-28T16:17:54.385Z,61.83
2018-09-28T16:20:26.378Z,61.65
2018-09-28T16:22:58.338Z,60.29
2018-09-28T16:25:30.351Z,59.74
2018-09-28T16:28:02.424Z,59.63
2018-09-28T16:30:34.433Z,60.17
2018-09-28T16:33:06.625Z,59.78
2018-09-28T16:35:38.485Z,59.20
2018-09-28T16:40:52.373Z,58.99
2018-09-28T16:43:24.346Z,57.55
2018-09-28T16:45:56.471Z,56.65
2018-09-28T16:48:28.448Z,55.40
2018-09-28T16:51:00.421Z,54.44
2018-09-28T16:53:32.402Z,54.24
2018-09-28T16:56:04.506Z,53.49
2018-09-28T16:58:36.483Z,52.84
2018-09-28T17:01:08.563Z,52.73
2018-09-28T17:03:40.539Z,52.91
2018-09-28T17:06:12.805Z,52.85
2018-09-28T17:08:44.615Z,52.88
2018-09-28T17:11:16.546Z,52.56
2018-09-28T17:13:48.428Z,52.72
2018-09-28T17:16:20.441Z,52.52
2018-09-28T17:18:52.420Z,53.65
2018-09-28T17:21:24.501Z,53.37
2018-09-28T17:23:56.469Z,54.02
2018-09-28T17:26:28.394Z,54.29
2018-09-28T17:29:00.393Z,54.12
2018-09-28T17:31:32.384Z,54.15
2018-09-28T17:34:04.335Z,54.02
2018-09-28T17:36:36.356Z,54.54
2018-09-28T17:39:12.764Z,53.85
2018-09-28T17:41:44.552Z,54.78
2018-09-28T17:44:16.450Z,55.21
2018-09-28T17:46:48.405Z,54.72
2018-09-28T17:49:20.406Z,54.76
2018-09-28T17:51:52.441Z,55.17
2018-09-28T17:54:24.445Z,55.57
2018-09-28T17:59:35.523Z,55.13
2018-09-28T18:02:07.509Z,55.23
2018-09-28T18:04:39.429Z,55.52
2018-09-28T18:07:11.432Z,55.56
2018-09-28T18:09:43.410Z,55.75
2018-09-28T18:12:15.426Z,55.88
2018-09-28T18:14:47.404Z,56.57
2018-09-28T18:17:19.443Z,56.03
2018-09-28T18:19:51.436Z,56.12
2018-09-28T18:22:23.552Z,56.20
2018-09-28T18:27:41.231Z,56.66
2018-09-28T18:30:13.334Z,56.93
2018-09-28T18:32:45.336Z,56.83
2018-09-28T18:35:17.346Z,56.80
2018-09-28T18:37:49.378Z,56.66
2018-09-28T18:40:21.398Z,57.14
2018-09-28T18:45:37.428Z,57.63
2018-09-28T18:48:09.355Z,57.48
2018-09-28T18:50:41.347Z,57.39
2018-09-28T18:53:13.520Z,57.16
2018-09-28T18:55:45.534Z,58.05
2018-09-28T18:58:17.450Z,57.75
2018-09-28T19:00:49.440Z,58.18
2018-09-28T19:03:21.500Z,58.39
2018-09-28T19:05:53.506Z,58.83
2018-09-28T19:08:25.394Z,58.88
2018-09-28T19:10:57.456Z,58.93
2018-09-28T19:13:29.392Z,59.02
2018-09-28T19:16:01.391Z,59.21
2018-09-28T19:18:33.387Z,59.89
2018-09-28T19:21:06.373Z,60.62
2018-09-28T19:23:38.354Z,60.30
2018-09-28T19:26:10.374Z,60.44
2018-09-28T19:28:42.349Z,61.14
2018-09-28T19:31:14.351Z,60.99
2018-09-28T19:33:46.380Z,61.19
2018-09-28T19:36:18.357Z,61.71
2018-09-28T19:38:50.440Z,61.31
2018-09-28T19:41:22.567Z,62.01
2018-09-28T19:43:54.486Z,61.92
2018-09-28T19:46:26.594Z,61.93
2018-09-28T19:48:58.545Z,62.35
2018-09-28T19:51:30.634Z,62.53
2018-09-28T19:54:02.505Z,62.93
2018-09-28T19:56:34.524Z,62.89
2018-09-28T19:59:06.545Z,63.16
2018-09-28T20:01:38.450Z,63.53
2018-09-28T20:04:10.434Z,63.43
2018-09-28T20:06:42.499Z,63.98
2018-09-28T20:09:14.473Z,63.74
2018-09-28T20:11:46.509Z,64.22
2018-09-28T20:14:18.486Z,64.29
2018-09-28T20:16:50.515Z,64.15
2018-09-28T20:19:22.474Z,64.26
2018-09-28T20:21:54.544Z,64.49
2018-09-28T20:24:26.561Z,65.36
2018-09-28T20:26:58.520Z,64.90
2018-09-28T20:29:30.477Z,64.65
2018-09-28T20:32:02.425Z,64.33
2018-09-28T20:34:34.491Z,64.83
2018-09-28T20:37:06.626Z,64.91
2018-09-28T20:39:38.534Z,65.20
2018-09-28T20:42:10.513Z,64.96
2018-09-28T20:44:42.465Z,65.62
2018-09-28T20:47:14.683Z,65.36
2018-09-28T20:49:46.499Z,65.74
2018-09-28T20:52:18.766Z,65.95
2018-09-28T20:54:51.717Z,65.30
2018-09-28T20:57:23.550Z,65.39
2018-09-28T20:59:56.462Z,65.95
2018-09-28T21:02:28.616Z,65.10
2018-09-28T21:05:00.605Z,65.83
2018-09-28T21:07:32.608Z,65.91
2018-09-28T21:10:04.575Z,65.47
2018-09-28T21:12:36.622Z,66.05
2018-09-28T21:15:08.484Z,65.60
2018-09-28T21:17:40.575Z,65.94
2018-09-28T21:20:12.536Z,66.15
2018-09-28T21:22:44.563Z,66.51
2018-09-28T21:25:18.291Z,66.49
2018-09-28T21:27:49.547Z,66.17
2018-09-28T21:30:21.575Z,66.17
2018-09-28T21:32:53.536Z,66.28
2018-09-28T21:35:25.521Z,66.58
2018-09-28T21:37:57.546Z,66.39
2018-09-28T21:40:29.595Z,66.31
2018-09-28T21:43:01.784Z,66.21
2018-09-28T21:45:34.426Z,65.91
2018-09-28T21:48:07.514Z,66.28
2018-09-28T21:50:50.704Z,65.47
2018-09-28T21:53:38.325Z,65.96
2018-09-28T21:56:13.960Z,65.68
2018-09-28T21:58:47.387Z,66.03
2018-09-28T22:01:24.298Z,65.81
2018-09-28T22:03:56.477Z,65.63
2018-09-28T22:06:28.964Z,65.33
2018-09-28T22:09:05.663Z,65.20
2018-09-28T22:11:37.556Z,65.78
2018-09-28T22:14:09.493Z,64.99
2018-09-28T22:16:41.518Z,66.06
2018-09-28T22:19:13.618Z,65.89
2018-09-28T22:21:45.546Z,65.81
2018-09-28T22:24:17.561Z,65.81
2018-09-28T22:26:49.514Z,66.18
2018-09-28T22:29:22.286Z,65.92
2018-09-28T22:31:53.382Z,65.70
2018-09-28T22:34:25.388Z,66.17
2018-09-28T22:36:57.361Z,65.81
2018-09-28T22:39:29.382Z,66.13
2018-09-28T22:42:01.543Z,65.77
2018-09-28T22:44:33.526Z,66.31
2018-09-28T22:47:05.453Z,66.08
2018-09-28T22:49:37.477Z,66.19
2018-09-28T22:52:09.428Z,66.15
2018-09-28T22:54:41.436Z,66.56
2018-09-28T22:57:13.485Z,66.40
2018-09-28T22:59:45.547Z,66.33
2018-09-28T23:02:17.539Z,66.34
2018-09-28T23:04:49.469Z,66.78
2018-09-28T23:07:21.428Z,67.09
2018-09-28T23:09:53.488Z,66.82
2018-09-28T23:12:25.449Z,66.60
2018-09-28T23:14:57.416Z,66.92
2018-09-28T23:17:29.450Z,66.66
2018-09-28T23:20:01.418Z,66.45
2018-09-28T23:22:33.406Z,66.86
2018-09-28T23:25:05.425Z,66.39
2018-09-28T23:27:37.429Z,66.49
2018-09-28T23:30:09.433Z,66.31
2018-09-28T23:32:41.421Z,66.43
2018-09-28T23:35:13.474Z,66.37
2018-09-28T23:40:28.350Z,66.32
2018-09-28T23:43:00.353Z,66.57
2018-09-28T23:45:32.353Z,67.44
2018-09-28T23:48:19.291Z,68.23
2018-09-28T23:50:50.403Z,67.69
2018-09-28T23:53:22.357Z,68.60
2018-09-28T23:55:54.372Z,67.10
2018-09-28T23:58:26.344Z,67.01
